Terminal Aerodrome Forecast
Issued by NWS

Home | Current Version | Previous Version | Text Only | Print | Product List | Glossary On
Versions: 1 2 3 4 5 6 7 8 9 10 11 12
000
FTPA31 PHFO 231126
TAFHJR
TAF
PHJR 231126Z 2312/2412 05005KT P6SM FEW035 SCT050
     FM232000 09008G15KT P6SM SCT035 SCT050
     FM240500 05005KT P6SM VCSH SCT035 BKN050=

USA.gov is the U.S. government's official web portal to all federal, state and local government web resources and services.